sensor_id;sensor_type;location;lat;lon;timestamp;P1;durP1;ratioP1;P2;durP2;ratioP2
54460;SDS011;40371;49.414;11.010;2022-12-11T00:02:02;14.13;;;11.00;;
54460;SDS011;40371;49.414;11.010;2022-12-11T00:04:28;13.17;;;10.97;;
54460;SDS011;40371;49.414;11.010;2022-12-11T00:06:54;15.10;;;11.50;;
54460;SDS011;40371;49.414;11.010;2022-12-11T00:09:20;13.37;;;11.53;;
54460;SDS011;40371;49.414;11.010;2022-12-11T00:11:46;14.13;;;11.63;;
54460;SDS011;40371;49.414;11.010;2022-12-11T00:14:12;13.97;;;10.90;;
54460;SDS011;40371;49.414;11.010;2022-12-11T00:16:38;13.83;;;10.90;;
54460;SDS011;40371;49.414;11.010;2022-12-11T00:19:04;14.80;;;12.13;;
54460;SDS011;40371;49.414;11.010;2022-12-11T00:21:30;13.07;;;10.57;;
54460;SDS011;40371;49.414;11.010;2022-12-11T00:23:56;12.43;;;11.07;;
54460;SDS011;40371;49.414;11.010;2022-12-11T00:26:22;13.23;;;10.07;;
54460;SDS011;40371;49.414;11.010;2022-12-11T00:28:50;14.43;;;11.37;;
54460;SDS011;40371;49.414;11.010;2022-12-11T00:31:20;13.57;;;11.57;;
54460;SDS011;40371;49.414;11.010;2022-12-11T00:33:47;14.27;;;11.70;;
54460;SDS011;40371;49.414;11.010;2022-12-11T00:36:14;14.57;;;11.40;;
54460;SDS011;40371;49.414;11.010;2022-12-11T00:38:41;14.00;;;11.20;;
54460;SDS011;40371;49.414;11.010;2022-12-11T00:41:07;11.80;;;9.87;;
54460;SDS011;40371;49.414;11.010;2022-12-11T00:43:33;13.63;;;10.67;;
54460;SDS011;40371;49.414;11.010;2022-12-11T00:45:59;13.00;;;11.03;;
54460;SDS011;40371;49.414;11.010;2022-12-11T00:48:25;11.37;;;10.17;;
54460;SDS011;40371;49.414;11.010;2022-12-11T00:50:50;15.23;;;11.33;;
54460;SDS011;40371;49.414;11.010;2022-12-11T00:53:16;12.10;;;10.77;;
54460;SDS011;40371;49.414;11.010;2022-12-11T00:55:42;14.23;;;11.47;;
54460;SDS011;40371;49.414;11.010;2022-12-11T00:58:08;13.57;;;11.17;;
54460;SDS011;40371;49.414;11.010;2022-12-11T01:00:34;12.07;;;10.77;;
54460;SDS011;40371;49.414;11.010;2022-12-11T01:03:01;12.13;;;10.17;;
54460;SDS011;40371;49.414;11.010;2022-12-11T01:05:27;13.47;;;11.63;;
54460;SDS011;40371;49.414;11.010;2022-12-11T01:07:52;11.37;;;10.17;;
54460;SDS011;40371;49.414;11.010;2022-12-11T01:10:18;10.90;;;9.77;;
54460;SDS011;40371;49.414;11.010;2022-12-11T01:12:54;12.10;;;10.90;;
54460;SDS011;40371;49.414;11.010;2022-12-11T01:15:33;11.80;;;10.53;;
54460;SDS011;40371;49.414;11.010;2022-12-11T01:18:04;12.83;;;10.93;;
54460;SDS011;40371;49.414;11.010;2022-12-11T01:20:30;12.90;;;11.17;;
54460;SDS011;40371;49.414;11.010;2022-12-11T01:22:57;12.87;;;10.53;;
54460;SDS011;40371;49.414;11.010;2022-12-11T01:25:24;13.07;;;11.30;;
54460;SDS011;40371;49.414;11.010;2022-12-11T01:27:50;13.10;;;11.43;;
54460;SDS011;40371;49.414;11.010;2022-12-11T01:30:18;13.87;;;11.87;;
54460;SDS011;40371;49.414;11.010;2022-12-11T01:32:45;12.60;;;11.17;;
54460;SDS011;40371;49.414;11.010;2022-12-11T01:35:11;15.83;;;13.40;;
54460;SDS011;40371;49.414;11.010;2022-12-11T01:37:37;13.90;;;12.40;;
54460;SDS011;40371;49.414;11.010;2022-12-11T01:40:03;14.17;;;12.57;;
54460;SDS011;40371;49.414;11.010;2022-12-11T01:42:30;13.93;;;12.30;;
54460;SDS011;40371;49.414;11.010;2022-12-11T01:47:40;17.87;;;13.80;;
54460;SDS011;40371;49.414;11.010;2022-12-11T01:50:07;14.83;;;12.03;;
54460;SDS011;40371;49.414;11.010;2022-12-11T01:52:32;14.57;;;12.67;;
54460;SDS011;40371;49.414;11.010;2022-12-11T01:54:58;16.53;;;12.93;;
54460;SDS011;40371;49.414;11.010;2022-12-11T01:57:25;15.97;;;13.37;;
54460;SDS011;40371;49.414;11.010;2022-12-11T01:59:50;15.50;;;12.87;;
54460;SDS011;40371;49.414;11.010;2022-12-11T02:02:20;15.30;;;13.00;;
54460;SDS011;40371;49.414;11.010;2022-12-11T02:04:51;17.20;;;13.10;;
54460;SDS011;40371;49.414;11.010;2022-12-11T02:07:17;14.73;;;13.17;;
54460;SDS011;40371;49.414;11.010;2022-12-11T02:09:44;16.00;;;13.10;;
54460;SDS011;40371;49.414;11.010;2022-12-11T02:12:23;17.07;;;13.37;;
54460;SDS011;40371;49.414;11.010;2022-12-11T02:14:58;14.70;;;12.97;;
54460;SDS011;40371;49.414;11.010;2022-12-11T02:17:43;15.87;;;13.17;;
54460;SDS011;40371;49.414;11.010;2022-12-11T02:20:43;14.37;;;12.60;;
54460;SDS011;40371;49.414;11.010;2022-12-11T02:23:28;14.33;;;11.90;;
54460;SDS011;40371;49.414;11.010;2022-12-11T02:29:16;14.50;;;12.13;;
54460;SDS011;40371;49.414;11.010;2022-12-11T02:31:56;15.20;;;12.60;;
54460;SDS011;40371;49.414;11.010;2022-12-11T02:37:36;13.57;;;11.83;;
54460;SDS011;40371;49.414;11.010;2022-12-11T02:40:04;15.60;;;12.63;;
54460;SDS011;40371;49.414;11.010;2022-12-11T02:42:33;13.17;;;11.57;;
54460;SDS011;40371;49.414;11.010;2022-12-11T02:45:01;15.50;;;12.97;;
54460;SDS011;40371;49.414;11.010;2022-12-11T02:47:28;13.63;;;11.70;;
54460;SDS011;40371;49.414;11.010;2022-12-11T02:49:56;12.93;;;11.53;;
54460;SDS011;40371;49.414;11.010;2022-12-11T02:52:25;13.10;;;11.70;;
54460;SDS011;40371;49.414;11.010;2022-12-11T02:54:54;14.80;;;12.20;;
54460;SDS011;40371;49.414;11.010;2022-12-11T02:59:57;12.30;;;10.97;;
54460;SDS011;40371;49.414;11.010;2022-12-11T03:02:23;12.47;;;10.67;;
54460;SDS011;40371;49.414;11.010;2022-12-11T03:04:49;14.30;;;11.37;;
54460;SDS011;40371;49.414;11.010;2022-12-11T03:07:22;12.13;;;10.83;;
54460;SDS011;40371;49.414;11.010;2022-12-11T03:09:52;12.90;;;11.27;;
54460;SDS011;40371;49.414;11.010;2022-12-11T03:12:20;11.40;;;10.20;;
54460;SDS011;40371;49.414;11.010;2022-12-11T03:14:51;12.47;;;10.97;;
54460;SDS011;40371;49.414;11.010;2022-12-11T03:17:21;11.93;;;10.63;;
54460;SDS011;40371;49.414;11.010;2022-12-11T03:22:22;13.93;;;11.57;;
54460;SDS011;40371;49.414;11.010;2022-12-11T03:24:59;14.40;;;11.73;;
54460;SDS011;40371;49.414;11.010;2022-12-11T03:27:33;12.23;;;10.80;;
54460;SDS011;40371;49.414;11.010;2022-12-11T03:30:03;12.63;;;11.03;;
54460;SDS011;40371;49.414;11.010;2022-12-11T03:32:37;12.73;;;11.23;;
54460;SDS011;40371;49.414;11.010;2022-12-11T03:38:15;11.97;;;10.37;;
54460;SDS011;40371;49.414;11.010;2022-12-11T03:40:46;13.00;;;11.43;;
54460;SDS011;40371;49.414;11.010;2022-12-11T03:43:15;13.30;;;11.77;;
54460;SDS011;40371;49.414;11.010;2022-12-11T03:45:42;13.90;;;11.23;;
54460;SDS011;40371;49.414;11.010;2022-12-11T03:48:10;12.93;;;11.57;;
54460;SDS011;40371;49.414;11.010;2022-12-11T03:50:38;14.00;;;12.47;;
54460;SDS011;40371;49.414;11.010;2022-12-11T03:53:06;14.47;;;11.87;;
54460;SDS011;40371;49.414;11.010;2022-12-11T03:55:32;14.60;;;13.03;;
54460;SDS011;40371;49.414;11.010;2022-12-11T03:58:01;16.43;;;13.33;;
54460;SDS011;40371;49.414;11.010;2022-12-11T04:00:27;15.30;;;12.80;;
54460;SDS011;40371;49.414;11.010;2022-12-11T04:02:53;16.97;;;13.10;;
54460;SDS011;40371;49.414;11.010;2022-12-11T04:05:42;15.83;;;12.97;;
54460;SDS011;40371;49.414;11.010;2022-12-11T04:08:09;15.93;;;12.90;;
54460;SDS011;40371;49.414;11.010;2022-12-11T04:10:35;16.23;;;13.27;;
54460;SDS011;40371;49.414;11.010;2022-12-11T04:13:01;17.00;;;13.90;;
54460;SDS011;40371;49.414;11.010;2022-12-11T04:15:26;17.70;;;14.50;;
54460;SDS011;40371;49.414;11.010;2022-12-11T04:17:52;17.90;;;14.07;;
54460;SDS011;40371;49.414;11.010;2022-12-11T04:20:36;18.60;;;14.63;;
54460;SDS011;40371;49.414;11.010;2022-12-11T04:23:21;18.07;;;14.43;;
54460;SDS011;40371;49.414;11.010;2022-12-11T04:26:10;17.60;;;13.70;;
54460;SDS011;40371;49.414;11.010;2022-12-11T04:28:39;16.13;;;13.30;;
54460;SDS011;40371;49.414;11.010;2022-12-11T04:31:05;15.77;;;12.83;;
54460;SDS011;40371;49.414;11.010;2022-12-11T04:33:36;16.67;;;13.87;;
54460;SDS011;40371;49.414;11.010;2022-12-11T04:36:01;18.73;;;14.17;;
54460;SDS011;40371;49.414;11.010;2022-12-11T04:38:27;18.27;;;13.57;;
54460;SDS011;40371;49.414;11.010;2022-12-11T04:41:00;18.17;;;12.70;;
54460;SDS011;40371;49.414;11.010;2022-12-11T04:43:27;16.10;;;12.57;;
54460;SDS011;40371;49.414;11.010;2022-12-11T04:46:00;18.47;;;13.90;;
54460;SDS011;40371;49.414;11.010;2022-12-11T04:48:34;15.47;;;12.27;;
54460;SDS011;40371;49.414;11.010;2022-12-11T04:51:00;15.30;;;13.07;;
54460;SDS011;40371;49.414;11.010;2022-12-11T04:53:26;17.37;;;13.73;;
54460;SDS011;40371;49.414;11.010;2022-12-11T04:55:52;18.47;;;14.30;;
54460;SDS011;40371;49.414;11.010;2022-12-11T04:58:17;18.30;;;13.50;;
54460;SDS011;40371;49.414;11.010;2022-12-11T05:00:43;16.23;;;12.90;;
54460;SDS011;40371;49.414;11.010;2022-12-11T05:03:09;15.20;;;12.20;;
54460;SDS011;40371;49.414;11.010;2022-12-11T05:05:34;18.40;;;14.50;;
54460;SDS011;40371;49.414;11.010;2022-12-11T05:08:00;16.83;;;13.50;;
54460;SDS011;40371;49.414;11.010;2022-12-11T05:10:26;18.20;;;14.23;;
54460;SDS011;40371;49.414;11.010;2022-12-11T05:12:51;15.63;;;11.97;;
54460;SDS011;40371;49.414;11.010;2022-12-11T05:15:17;16.60;;;12.73;;
54460;SDS011;40371;49.414;11.010;2022-12-11T05:17:42;18.70;;;12.83;;
54460;SDS011;40371;49.414;11.010;2022-12-11T05:20:08;16.33;;;13.00;;
54460;SDS011;40371;49.414;11.010;2022-12-11T05:22:35;16.93;;;13.40;;
54460;SDS011;40371;49.414;11.010;2022-12-11T05:25:01;17.10;;;14.17;;
54460;SDS011;40371;49.414;11.010;2022-12-11T05:27:27;16.27;;;12.83;;
54460;SDS011;40371;49.414;11.010;2022-12-11T05:29:52;16.07;;;12.50;;
54460;SDS011;40371;49.414;11.010;2022-12-11T05:32:18;16.50;;;13.63;;
54460;SDS011;40371;49.414;11.010;2022-12-11T05:34:43;14.23;;;11.83;;
54460;SDS011;40371;49.414;11.010;2022-12-11T05:37:09;14.07;;;10.83;;
54460;SDS011;40371;49.414;11.010;2022-12-11T05:39:35;13.97;;;11.97;;
54460;SDS011;40371;49.414;11.010;2022-12-11T05:42:01;15.80;;;11.77;;
54460;SDS011;40371;49.414;11.010;2022-12-11T05:44:27;15.37;;;11.63;;
54460;SDS011;40371;49.414;11.010;2022-12-11T05:46:52;14.37;;;11.83;;
54460;SDS011;40371;49.414;11.010;2022-12-11T05:49:18;17.00;;;12.73;;
54460;SDS011;40371;49.414;11.010;2022-12-11T05:51:43;15.67;;;11.87;;
54460;SDS011;40371;49.414;11.010;2022-12-11T05:54:09;13.53;;;11.13;;
54460;SDS011;40371;49.414;11.010;2022-12-11T05:56:35;16.50;;;12.43;;
54460;SDS011;40371;49.414;11.010;2022-12-11T05:59:02;16.00;;;12.07;;
54460;SDS011;40371;49.414;11.010;2022-12-11T06:01:30;12.70;;;10.80;;
54460;SDS011;40371;49.414;11.010;2022-12-11T06:04:06;15.20;;;12.10;;
54460;SDS011;40371;49.414;11.010;2022-12-11T06:06:33;16.00;;;12.00;;
54460;SDS011;40371;49.414;11.010;2022-12-11T06:09:00;15.43;;;12.70;;
54460;SDS011;40371;49.414;11.010;2022-12-11T06:11:26;16.67;;;12.77;;
54460;SDS011;40371;49.414;11.010;2022-12-11T06:13:53;14.47;;;11.97;;
54460;SDS011;40371;49.414;11.010;2022-12-11T06:16:20;17.87;;;13.17;;
54460;SDS011;40371;49.414;11.010;2022-12-11T06:18:45;17.13;;;13.17;;
54460;SDS011;40371;49.414;11.010;2022-12-11T06:21:17;19.20;;;14.17;;
54460;SDS011;40371;49.414;11.010;2022-12-11T06:23:45;18.20;;;14.80;;
54460;SDS011;40371;49.414;11.010;2022-12-11T06:26:12;18.73;;;13.93;;
54460;SDS011;40371;49.414;11.010;2022-12-11T06:28:38;16.53;;;13.33;;
54460;SDS011;40371;49.414;11.010;2022-12-11T06:31:04;15.97;;;12.33;;
54460;SDS011;40371;49.414;11.010;2022-12-11T06:33:30;16.80;;;13.27;;
54460;SDS011;40371;49.414;11.010;2022-12-11T06:36:00;18.77;;;13.37;;
54460;SDS011;40371;49.414;11.010;2022-12-11T06:38:30;15.50;;;12.43;;
54460;SDS011;40371;49.414;11.010;2022-12-11T06:40:57;16.30;;;12.73;;
54460;SDS011;40371;49.414;11.010;2022-12-11T06:43:24;16.57;;;13.27;;
54460;SDS011;40371;49.414;11.010;2022-12-11T06:45:50;16.07;;;12.80;;
54460;SDS011;40371;49.414;11.010;2022-12-11T06:48:16;16.60;;;12.73;;
54460;SDS011;40371;49.414;11.010;2022-12-11T06:50:43;16.20;;;12.57;;
54460;SDS011;40371;49.414;11.010;2022-12-11T06:53:09;16.17;;;12.43;;
54460;SDS011;40371;49.414;11.010;2022-12-11T06:55:36;16.30;;;13.23;;
54460;SDS011;40371;49.414;11.010;2022-12-11T06:58:02;14.83;;;11.83;;
54460;SDS011;40371;49.414;11.010;2022-12-11T07:00:28;15.00;;;12.20;;
54460;SDS011;40371;49.414;11.010;2022-12-11T07:02:53;15.37;;;12.57;;
54460;SDS011;40371;49.414;11.010;2022-12-11T07:05:19;17.37;;;12.70;;
54460;SDS011;40371;49.414;11.010;2022-12-11T07:07:45;15.93;;;12.20;;
54460;SDS011;40371;49.414;11.010;2022-12-11T07:10:11;15.27;;;11.70;;
54460;SDS011;40371;49.414;11.010;2022-12-11T07:12:36;15.63;;;11.70;;
54460;SDS011;40371;49.414;11.010;2022-12-11T07:15:03;14.00;;;11.83;;
54460;SDS011;40371;49.414;11.010;2022-12-11T07:17:29;16.20;;;12.67;;
54460;SDS011;40371;49.414;11.010;2022-12-11T07:19:55;15.77;;;12.03;;
54460;SDS011;40371;49.414;11.010;2022-12-11T07:22:20;15.90;;;12.67;;
54460;SDS011;40371;49.414;11.010;2022-12-11T07:24:46;17.07;;;12.60;;
54460;SDS011;40371;49.414;11.010;2022-12-11T07:27:11;14.40;;;12.23;;
54460;SDS011;40371;49.414;11.010;2022-12-11T07:29:37;16.17;;;12.87;;
54460;SDS011;40371;49.414;11.010;2022-12-11T07:32:03;16.13;;;12.70;;
54460;SDS011;40371;49.414;11.010;2022-12-11T07:34:28;13.80;;;11.80;;
54460;SDS011;40371;49.414;11.010;2022-12-11T07:36:54;14.63;;;12.20;;
54460;SDS011;40371;49.414;11.010;2022-12-11T07:39:20;15.63;;;12.70;;
54460;SDS011;40371;49.414;11.010;2022-12-11T07:41:45;14.90;;;12.80;;
54460;SDS011;40371;49.414;11.010;2022-12-11T07:44:11;14.73;;;12.10;;
54460;SDS011;40371;49.414;11.010;2022-12-11T07:46:37;13.87;;;10.83;;
54460;SDS011;40371;49.414;11.010;2022-12-11T07:49:04;14.63;;;12.23;;
54460;SDS011;40371;49.414;11.010;2022-12-11T07:51:31;15.87;;;11.97;;
54460;SDS011;40371;49.414;11.010;2022-12-11T07:54:02;15.47;;;12.13;;
54460;SDS011;40371;49.414;11.010;2022-12-11T07:56:30;14.47;;;12.53;;
54460;SDS011;40371;49.414;11.010;2022-12-11T07:59:03;15.13;;;12.27;;
54460;SDS011;40371;49.414;11.010;2022-12-11T08:01:30;15.93;;;12.77;;
54460;SDS011;40371;49.414;11.010;2022-12-11T08:04:05;16.17;;;12.60;;
54460;SDS011;40371;49.414;11.010;2022-12-11T08:06:33;14.23;;;12.07;;
54460;SDS011;40371;49.414;11.010;2022-12-11T08:09:01;13.97;;;11.93;;
54460;SDS011;40371;49.414;11.010;2022-12-11T08:11:28;15.33;;;12.93;;
54460;SDS011;40371;49.414;11.010;2022-12-11T08:13:54;15.43;;;12.70;;
54460;SDS011;40371;49.414;11.010;2022-12-11T08:16:19;21.57;;;15.57;;
54460;SDS011;40371;49.414;11.010;2022-12-11T08:18:46;22.53;;;15.23;;
54460;SDS011;40371;49.414;11.010;2022-12-11T08:21:16;19.90;;;14.00;;
54460;SDS011;40371;49.414;11.010;2022-12-11T08:23:43;15.00;;;12.43;;
54460;SDS011;40371;49.414;11.010;2022-12-11T08:26:11;15.43;;;12.07;;
54460;SDS011;40371;49.414;11.010;2022-12-11T08:28:39;16.70;;;13.63;;
54460;SDS011;40371;49.414;11.010;2022-12-11T08:31:08;15.00;;;12.00;;
54460;SDS011;40371;49.414;11.010;2022-12-11T08:33:35;12.57;;;10.90;;
54460;SDS011;40371;49.414;11.010;2022-12-11T08:36:05;12.50;;;10.60;;
54460;SDS011;40371;49.414;11.010;2022-12-11T08:38:33;11.23;;;10.03;;
54460;SDS011;40371;49.414;11.010;2022-12-11T08:41:06;12.90;;;10.80;;
54460;SDS011;40371;49.414;11.010;2022-12-11T08:43:39;12.20;;;10.53;;
54460;SDS011;40371;49.414;11.010;2022-12-11T08:46:05;13.10;;;10.47;;
54460;SDS011;40371;49.414;11.010;2022-12-11T08:48:35;13.97;;;11.50;;
54460;SDS011;40371;49.414;11.010;2022-12-11T08:51:04;12.23;;;10.93;;
54460;SDS011;40371;49.414;11.010;2022-12-11T08:53:32;13.27;;;11.90;;
54460;SDS011;40371;49.414;11.010;2022-12-11T08:56:05;12.03;;;10.77;;
54460;SDS011;40371;49.414;11.010;2022-12-11T08:58:33;12.10;;;10.87;;
54460;SDS011;40371;49.414;11.010;2022-12-11T09:00:59;11.93;;;10.43;;
54460;SDS011;40371;49.414;11.010;2022-12-11T09:03:40;12.93;;;11.03;;
54460;SDS011;40371;49.414;11.010;2022-12-11T09:06:06;11.50;;;10.30;;
54460;SDS011;40371;49.414;11.010;2022-12-11T09:08:34;12.30;;;10.90;;
54460;SDS011;40371;49.414;11.010;2022-12-11T09:11:07;11.17;;;10.07;;
54460;SDS011;40371;49.414;11.010;2022-12-11T09:13:35;14.20;;;11.33;;
54460;SDS011;40371;49.414;11.010;2022-12-11T09:16:03;12.67;;;11.27;;
54460;SDS011;40371;49.414;11.010;2022-12-11T09:18:30;12.43;;;11.13;;
54460;SDS011;40371;49.414;11.010;2022-12-11T09:21:03;11.97;;;10.63;;
54460;SDS011;40371;49.414;11.010;2022-12-11T09:23:30;12.23;;;10.93;;
54460;SDS011;40371;49.414;11.010;2022-12-11T09:25:56;12.10;;;10.53;;
54460;SDS011;40371;49.414;11.010;2022-12-11T09:28:22;14.30;;;12.33;;
54460;SDS011;40371;49.414;11.010;2022-12-11T09:30:48;14.93;;;12.10;;
54460;SDS011;40371;49.414;11.010;2022-12-11T09:33:14;12.27;;;10.80;;
54460;SDS011;40371;49.414;11.010;2022-12-11T09:35:40;13.40;;;11.00;;
54460;SDS011;40371;49.414;11.010;2022-12-11T09:38:06;12.47;;;11.03;;
54460;SDS011;40371;49.414;11.010;2022-12-11T09:40:31;15.40;;;11.03;;
54460;SDS011;40371;49.414;11.010;2022-12-11T09:42:59;11.93;;;10.50;;
54460;SDS011;40371;49.414;11.010;2022-12-11T09:45:32;10.97;;;9.87;;
54460;SDS011;40371;49.414;11.010;2022-12-11T09:47:59;12.70;;;9.93;;
54460;SDS011;40371;49.414;11.010;2022-12-11T09:50:27;12.60;;;10.17;;
54460;SDS011;40371;49.414;11.010;2022-12-11T09:55:42;10.50;;;9.40;;
54460;SDS011;40371;49.414;11.010;2022-12-11T10:01:23;9.90;;;8.70;;
54460;SDS011;40371;49.414;11.010;2022-12-11T10:07:07;11.27;;;9.50;;
54460;SDS011;40371;49.414;11.010;2022-12-11T10:12:18;25.20;;;19.70;;
54460;SDS011;40371;49.414;11.010;2022-12-11T10:18:01;21.10;;;15.53;;
54460;SDS011;40371;49.414;11.010;2022-12-11T10:20:30;15.73;;;13.20;;
54460;SDS011;40371;49.414;11.010;2022-12-11T10:23:05;11.03;;;9.13;;
54460;SDS011;40371;49.414;11.010;2022-12-11T10:25:35;9.93;;;8.77;;
54460;SDS011;40371;49.414;11.010;2022-12-11T10:28:14;11.63;;;9.73;;
54460;SDS011;40371;49.414;11.010;2022-12-11T10:36:18;11.23;;;9.20;;
54460;SDS011;40371;49.414;11.010;2022-12-11T10:38:50;12.33;;;9.70;;
54460;SDS011;40371;49.414;11.010;2022-12-11T10:41:17;11.33;;;9.50;;
54460;SDS011;40371;49.414;11.010;2022-12-11T10:43:49;9.40;;;8.37;;
54460;SDS011;40371;49.414;11.010;2022-12-11T10:46:23;22.13;;;12.23;;
54460;SDS011;40371;49.414;11.010;2022-12-11T10:48:54;14.97;;;12.33;;
54460;SDS011;40371;49.414;11.010;2022-12-11T10:51:23;14.17;;;11.37;;
54460;SDS011;40371;49.414;11.010;2022-12-11T10:54:03;10.73;;;9.10;;
54460;SDS011;40371;49.414;11.010;2022-12-11T10:56:32;12.20;;;10.23;;
54460;SDS011;40371;49.414;11.010;2022-12-11T10:59:01;10.17;;;8.50;;
54460;SDS011;40371;49.414;11.010;2022-12-11T11:01:28;10.30;;;8.80;;
54460;SDS011;40371;49.414;11.010;2022-12-11T11:04:01;11.87;;;9.67;;
54460;SDS011;40371;49.414;11.010;2022-12-11T11:06:31;11.77;;;8.97;;
54460;SDS011;40371;49.414;11.010;2022-12-11T11:08:58;9.77;;;7.80;;
54460;SDS011;40371;49.414;11.010;2022-12-11T11:11:27;10.10;;;7.83;;
54460;SDS011;40371;49.414;11.010;2022-12-11T11:14:16;10.60;;;9.17;;
54460;SDS011;40371;49.414;11.010;2022-12-11T11:16:43;12.00;;;10.03;;
54460;SDS011;40371;49.414;11.010;2022-12-11T11:21:55;10.17;;;8.60;;
54460;SDS011;40371;49.414;11.010;2022-12-11T11:24:29;10.13;;;8.57;;
54460;SDS011;40371;49.414;11.010;2022-12-11T11:26:59;9.80;;;8.47;;
54460;SDS011;40371;49.414;11.010;2022-12-11T11:29:32;10.47;;;9.30;;
54460;SDS011;40371;49.414;11.010;2022-12-11T11:32:00;11.10;;;9.67;;
54460;SDS011;40371;49.414;11.010;2022-12-11T11:34:43;11.23;;;9.63;;
54460;SDS011;40371;49.414;11.010;2022-12-11T11:37:22;10.63;;;9.30;;
54460;SDS011;40371;49.414;11.010;2022-12-11T11:39:48;11.57;;;10.20;;
54460;SDS011;40371;49.414;11.010;2022-12-11T11:42:23;11.80;;;9.90;;
54460;SDS011;40371;49.414;11.010;2022-12-11T11:45:02;11.07;;;9.77;;
54460;SDS011;40371;49.414;11.010;2022-12-11T11:47:40;10.83;;;9.43;;
54460;SDS011;40371;49.414;11.010;2022-12-11T11:50:16;11.77;;;10.13;;
54460;SDS011;40371;49.414;11.010;2022-12-11T11:52:54;10.43;;;9.10;;
54460;SDS011;40371;49.414;11.010;2022-12-11T11:58:04;8.80;;;7.83;;
54460;SDS011;40371;49.414;11.010;2022-12-11T12:00:43;9.50;;;7.87;;
54460;SDS011;40371;49.414;11.010;2022-12-11T12:03:10;9.67;;;7.87;;
54460;SDS011;40371;49.414;11.010;2022-12-11T12:08:37;8.67;;;7.73;;
54460;SDS011;40371;49.414;11.010;2022-12-11T12:22:21;11.53;;;8.73;;
54460;SDS011;40371;49.414;11.010;2022-12-11T12:25:13;10.60;;;8.60;;
54460;SDS011;40371;49.414;11.010;2022-12-11T12:27:54;10.40;;;8.57;;
54460;SDS011;40371;49.414;11.010;2022-12-11T12:31:21;9.00;;;8.20;;
54460;SDS011;40371;49.414;11.010;2022-12-11T12:38:54;8.77;;;7.87;;
54460;SDS011;40371;49.414;11.010;2022-12-11T12:44:32;9.07;;;8.00;;
54460;SDS011;40371;49.414;11.010;2022-12-11T12:47:18;8.57;;;7.70;;
54460;SDS011;40371;49.414;11.010;2022-12-11T12:49:45;9.00;;;8.10;;
54460;SDS011;40371;49.414;11.010;2022-12-11T12:55:04;8.43;;;7.50;;
54460;SDS011;40371;49.414;11.010;2022-12-11T12:57:41;8.23;;;7.43;;
54460;SDS011;40371;49.414;11.010;2022-12-11T13:00:26;33.97;;;26.87;;
54460;SDS011;40371;49.414;11.010;2022-12-11T13:03:00;20.40;;;17.87;;
54460;SDS011;40371;49.414;11.010;2022-12-11T13:06:02;13.17;;;10.47;;
54460;SDS011;40371;49.414;11.010;2022-12-11T13:08:45;13.60;;;10.70;;
54460;SDS011;40371;49.414;11.010;2022-12-11T13:11:14;7.37;;;6.67;;
54460;SDS011;40371;49.414;11.010;2022-12-11T13:13:42;10.70;;;8.40;;
54460;SDS011;40371;49.414;11.010;2022-12-11T13:18:44;9.77;;;8.57;;
54460;SDS011;40371;49.414;11.010;2022-12-11T13:21:25;8.73;;;7.57;;
54460;SDS011;40371;49.414;11.010;2022-12-11T13:26:37;10.07;;;8.07;;
54460;SDS011;40371;49.414;11.010;2022-12-11T13:29:03;9.07;;;7.40;;
54460;SDS011;40371;49.414;11.010;2022-12-11T13:31:34;7.67;;;6.83;;
54460;SDS011;40371;49.414;11.010;2022-12-11T13:34:12;8.40;;;6.83;;
54460;SDS011;40371;49.414;11.010;2022-12-11T13:36:45;7.83;;;7.03;;
54460;SDS011;40371;49.414;11.010;2022-12-11T13:39:28;6.77;;;6.07;;
54460;SDS011;40371;49.414;11.010;2022-12-11T13:41:56;7.57;;;6.87;;
54460;SDS011;40371;49.414;11.010;2022-12-11T13:44:27;6.97;;;6.27;;
54460;SDS011;40371;49.414;11.010;2022-12-11T13:46:57;7.70;;;6.60;;
54460;SDS011;40371;49.414;11.010;2022-12-11T13:49:29;7.37;;;6.53;;
54460;SDS011;40371;49.414;11.010;2022-12-11T13:52:01;7.10;;;6.40;;
54460;SDS011;40371;49.414;11.010;2022-12-11T13:54:30;6.23;;;5.63;;
54460;SDS011;40371;49.414;11.010;2022-12-11T13:57:02;6.57;;;5.77;;
54460;SDS011;40371;49.414;11.010;2022-12-11T13:59:34;7.30;;;6.60;;
54460;SDS011;40371;49.414;11.010;2022-12-11T14:04:40;8.97;;;7.00;;
54460;SDS011;40371;49.414;11.010;2022-12-11T14:07:06;7.83;;;7.03;;
54460;SDS011;40371;49.414;11.010;2022-12-11T14:09:34;8.00;;;6.93;;
54460;SDS011;40371;49.414;11.010;2022-12-11T14:12:06;8.27;;;7.27;;
54460;SDS011;40371;49.414;11.010;2022-12-11T14:14:44;7.00;;;6.27;;
54460;SDS011;40371;49.414;11.010;2022-12-11T14:17:16;7.47;;;6.27;;
54460;SDS011;40371;49.414;11.010;2022-12-11T14:19:49;8.70;;;6.90;;
54460;SDS011;40371;49.414;11.010;2022-12-11T14:22:16;7.47;;;6.63;;
54460;SDS011;40371;49.414;11.010;2022-12-11T14:24:54;7.60;;;6.23;;
54460;SDS011;40371;49.414;11.010;2022-12-11T14:27:21;8.43;;;6.60;;
54460;SDS011;40371;49.414;11.010;2022-12-11T14:29:47;8.37;;;7.23;;
54460;SDS011;40371;49.414;11.010;2022-12-11T14:32:16;7.87;;;6.73;;
54460;SDS011;40371;49.414;11.010;2022-12-11T14:34:47;6.67;;;5.97;;
54460;SDS011;40371;49.414;11.010;2022-12-11T14:37:15;10.10;;;6.77;;
54460;SDS011;40371;49.414;11.010;2022-12-11T14:39:53;8.53;;;6.63;;
54460;SDS011;40371;49.414;11.010;2022-12-11T14:42:23;6.87;;;6.17;;
54460;SDS011;40371;49.414;11.010;2022-12-11T14:45:05;8.73;;;7.03;;
54460;SDS011;40371;49.414;11.010;2022-12-11T14:47:37;8.90;;;6.47;;
54460;SDS011;40371;49.414;11.010;2022-12-11T14:50:10;8.03;;;6.77;;
54460;SDS011;40371;49.414;11.010;2022-12-11T14:52:42;8.90;;;6.80;;
54460;SDS011;40371;49.414;11.010;2022-12-11T14:55:18;9.63;;;7.23;;
54460;SDS011;40371;49.414;11.010;2022-12-11T14:57:59;8.27;;;7.33;;
54460;SDS011;40371;49.414;11.010;2022-12-11T15:00:30;9.20;;;7.30;;
54460;SDS011;40371;49.414;11.010;2022-12-11T15:05:27;9.63;;;7.70;;
54460;SDS011;40371;49.414;11.010;2022-12-11T15:07:58;10.67;;;8.87;;
54460;SDS011;40371;49.414;11.010;2022-12-11T15:10:27;10.43;;;8.20;;
54460;SDS011;40371;49.414;11.010;2022-12-11T15:13:02;11.13;;;8.97;;
54460;SDS011;40371;49.414;11.010;2022-12-11T15:15:29;12.57;;;9.40;;
54460;SDS011;40371;49.414;11.010;2022-12-11T15:18:01;12.50;;;9.67;;
54460;SDS011;40371;49.414;11.010;2022-12-11T15:20:31;10.83;;;7.80;;
54460;SDS011;40371;49.414;11.010;2022-12-11T15:22:57;10.67;;;8.63;;
54460;SDS011;40371;49.414;11.010;2022-12-11T15:25:27;12.87;;;9.43;;
54460;SDS011;40371;49.414;11.010;2022-12-11T15:27:54;13.30;;;9.37;;
54460;SDS011;40371;49.414;11.010;2022-12-11T15:35:36;10.20;;;8.87;;
54460;SDS011;40371;49.414;11.010;2022-12-11T15:38:03;11.20;;;8.07;;
54460;SDS011;40371;49.414;11.010;2022-12-11T15:40:29;13.63;;;8.83;;
54460;SDS011;40371;49.414;11.010;2022-12-11T15:42:55;10.20;;;8.20;;
54460;SDS011;40371;49.414;11.010;2022-12-11T15:45:26;9.87;;;8.17;;
54460;SDS011;40371;49.414;11.010;2022-12-11T15:47:53;10.27;;;8.33;;
54460;SDS011;40371;49.414;11.010;2022-12-11T15:50:23;12.17;;;8.53;;
54460;SDS011;40371;49.414;11.010;2022-12-11T15:52:50;10.93;;;8.93;;